createdAt,value
2017-12-14T00:00:27.902Z,935.94
2017-12-14T00:00:55.779Z,935.93
2017-12-14T00:01:23.818Z,935.92
2017-12-14T00:02:47.619Z,935.96
2017-12-14T00:03:15.856Z,936.02
2017-12-14T00:03:43.899Z,935.99
2017-12-14T00:04:11.973Z,936
2017-12-14T00:04:40.068Z,936.01
2017-12-14T00:05:08.158Z,936
2017-12-14T00:05:36.357Z,936
2017-12-14T00:06:59.556Z,936.04
2017-12-14T00:07:27.714Z,936.02
2017-12-14T00:07:55.891Z,936.03
2017-12-14T00:08:23.999Z,936.07
2017-12-14T00:08:52.212Z,936.06
2017-12-14T00:09:20.253Z,936.06
2017-12-14T00:09:48.311Z,936.05
2017-12-14T00:11:11.642Z,936.1
2017-12-14T00:11:39.774Z,936.07
2017-12-14T00:12:07.957Z,936.13
2017-12-14T00:12:36.010Z,936.17
2017-12-14T00:13:04.428Z,936.21
2017-12-14T00:13:32.537Z,936.19
2017-12-14T00:14:00.723Z,936.17
2017-12-14T00:15:23.933Z,936.24
2017-12-14T00:15:52.015Z,936.24
2017-12-14T00:16:20.049Z,936.23
2017-12-14T00:16:48.167Z,936.27
2017-12-14T00:17:16.273Z,936.29
2017-12-14T00:17:44.537Z,936.26
2017-12-14T00:18:12.534Z,936.27
2017-12-14T00:19:35.827Z,936.26
2017-12-14T00:20:03.791Z,936.25
2017-12-14T00:20:31.747Z,936.3
2017-12-14T00:20:59.703Z,936.3
2017-12-14T00:21:27.823Z,936.28
2017-12-14T00:21:55.835Z,936.3
2017-12-14T00:22:23.993Z,936.26
2017-12-14T00:23:47.261Z,936.27
2017-12-14T00:24:15.233Z,936.31
2017-12-14T00:24:43.289Z,936.28
2017-12-14T00:25:11.514Z,936.31
2017-12-14T00:25:39.483Z,936.28
2017-12-14T00:26:07.499Z,936.31
2017-12-14T00:26:35.663Z,936.31
2017-12-14T00:27:58.810Z,936.34
2017-12-14T00:28:26.985Z,936.35
2017-12-14T00:28:55.163Z,936.36
2017-12-14T00:29:23.529Z,936.34
2017-12-14T00:29:51.708Z,936.35
2017-12-14T00:30:19.661Z,936.35
2017-12-14T00:30:47.824Z,936.33
2017-12-14T00:32:11.134Z,936.35
2017-12-14T00:32:39.176Z,936.33
2017-12-14T00:33:07.459Z,936.28
2017-12-14T00:33:35.518Z,936.34
2017-12-14T00:34:03.698Z,936.33
2017-12-14T00:34:31.910Z,936.32
2017-12-14T00:34:59.963Z,936.33
2017-12-14T00:36:23.185Z,936.32
2017-12-14T00:36:51.117Z,936.36
2017-12-14T00:37:19.297Z,936.35
2017-12-14T00:37:47.286Z,936.33
2017-12-14T00:38:15.356Z,936.36
2017-12-14T00:38:43.568Z,936.32
2017-12-14T00:39:11.745Z,936.36
2017-12-14T00:40:35.091Z,936.37
2017-12-14T00:41:03.120Z,936.39
2017-12-14T00:41:31.287Z,936.37
2017-12-14T00:41:59.306Z,936.39
2017-12-14T00:42:27.404Z,936.46
2017-12-14T00:42:55.876Z,936.39
2017-12-14T00:43:24.031Z,936.43
2017-12-14T00:44:47.284Z,936.47
2017-12-14T00:45:15.264Z,936.47
2017-12-14T00:45:43.273Z,936.49
2017-12-14T00:46:11.102Z,936.47
2017-12-14T00:46:39.273Z,936.48
2017-12-14T00:47:07.418Z,936.51
2017-12-14T00:47:35.435Z,936.46
2017-12-14T00:48:58.978Z,936.46
2017-12-14T00:49:26.926Z,936.51
2017-12-14T00:49:54.928Z,936.47
2017-12-14T00:50:23.038Z,936.5
2017-12-14T00:50:51.130Z,936.46
2017-12-14T00:51:19.327Z,936.48
2017-12-14T00:51:47.400Z,936.5
2017-12-14T00:53:10.468Z,936.52
2017-12-14T00:53:38.655Z,936.53
2017-12-14T00:54:06.641Z,936.55
2017-12-14T00:54:34.624Z,936.58
2017-12-14T00:55:02.794Z,936.57
2017-12-14T00:55:30.691Z,936.59
2017-12-14T00:55:58.814Z,936.59
2017-12-14T00:57:22.124Z,936.6
2017-12-14T00:57:50.288Z,936.63
2017-12-14T00:58:18.470Z,936.63
2017-12-14T00:58:46.551Z,936.61
2017-12-14T00:59:14.777Z,936.57
2017-12-14T00:59:42.682Z,936.58
2017-12-14T01:00:10.719Z,936.53
2017-12-14T01:01:33.818Z,936.59
2017-12-14T01:02:01.884Z,936.64
2017-12-14T01:02:29.975Z,936.65
2017-12-14T01:02:58.010Z,936.64
2017-12-14T01:03:26.443Z,936.67
2017-12-14T01:03:54.584Z,936.66
2017-12-14T01:04:22.732Z,936.67
2017-12-14T01:05:46.077Z,936.73
2017-12-14T01:06:14.110Z,936.77
2017-12-14T01:06:42.226Z,936.72
2017-12-14T01:07:10.305Z,936.79
2017-12-14T01:07:38.337Z,936.8
2017-12-14T01:08:06.393Z,936.82
2017-12-14T01:08:34.553Z,936.8
2017-12-14T01:09:57.902Z,936.78
2017-12-14T01:10:25.829Z,936.8
2017-12-14T01:10:53.799Z,936.79
2017-12-14T01:11:21.964Z,936.8
2017-12-14T01:11:50.089Z,936.78
2017-12-14T01:12:18.160Z,936.77
2017-12-14T01:12:46.016Z,936.78
2017-12-14T01:14:09.612Z,936.75
2017-12-14T01:14:37.815Z,936.8
2017-12-14T01:15:05.961Z,936.78
2017-12-14T01:15:34.038Z,936.75
2017-12-14T01:16:02.192Z,936.75
2017-12-14T01:16:30.340Z,936.73
2017-12-14T01:16:58.528Z,936.74
2017-12-14T01:18:22.005Z,936.77
2017-12-14T01:18:50.068Z,936.76
2017-12-14T01:19:18.139Z,936.75
2017-12-14T01:19:46.288Z,936.79
2017-12-14T01:20:14.424Z,936.7
2017-12-14T01:20:42.494Z,936.72
2017-12-14T01:21:10.690Z,936.74
2017-12-14T01:22:34.014Z,936.78
2017-12-14T01:23:02.161Z,936.75
2017-12-14T01:23:30.202Z,936.76
2017-12-14T01:23:58.386Z,936.77
2017-12-14T01:24:26.310Z,936.77
2017-12-14T01:24:54.471Z,936.79
2017-12-14T01:25:22.502Z,936.76
2017-12-14T01:26:45.748Z,936.8
2017-12-14T01:27:13.919Z,936.79
2017-12-14T01:27:42.067Z,936.78
2017-12-14T01:28:10.248Z,936.79
2017-12-14T01:28:38.307Z,936.73
2017-12-14T01:29:06.489Z,936.8
2017-12-14T01:29:34.586Z,936.8
2017-12-14T01:30:57.799Z,936.85
2017-12-14T01:31:25.954Z,936.82
2017-12-14T01:31:53.900Z,936.86
2017-12-14T01:32:22.060Z,936.88
2017-12-14T01:32:50.116Z,936.9
2017-12-14T01:33:18.407Z,936.9
2017-12-14T01:33:46.478Z,936.91
2017-12-14T01:35:09.675Z,936.94
2017-12-14T01:35:37.841Z,936.94
2017-12-14T01:36:06.040Z,936.95
2017-12-14T01:36:34.143Z,936.97
2017-12-14T01:37:02.263Z,936.99
2017-12-14T01:37:30.327Z,936.97
2017-12-14T01:37:58.481Z,937.03
2017-12-14T01:39:21.886Z,936.96
2017-12-14T01:39:50.094Z,937.01
2017-12-14T01:40:18.304Z,936.98
2017-12-14T01:40:46.339Z,937.01
2017-12-14T01:41:14.412Z,936.98
2017-12-14T01:41:42.451Z,936.97
2017-12-14T01:42:10.643Z,936.99
2017-12-14T01:43:34.137Z,937.01
2017-12-14T01:44:02.334Z,936.98
2017-12-14T01:44:30.540Z,936.96
2017-12-14T01:44:58.720Z,936.95
2017-12-14T01:45:26.772Z,936.97
2017-12-14T01:45:54.862Z,936.97
2017-12-14T01:46:22.965Z,936.97
2017-12-14T01:47:46.378Z,936.94
2017-12-14T01:48:14.552Z,936.91
2017-12-14T01:48:42.848Z,936.92
2017-12-14T01:49:10.896Z,936.94
2017-12-14T01:49:39.088Z,936.91
2017-12-14T01:50:07.286Z,936.9
2017-12-14T01:50:35.473Z,936.91
2017-12-14T01:51:58.744Z,936.86
2017-12-14T01:52:26.907Z,936.86
2017-12-14T01:52:55.142Z,936.79
2017-12-14T01:53:23.329Z,936.81
2017-12-14T01:53:51.298Z,936.79
2017-12-14T01:54:19.372Z,936.8
2017-12-14T01:54:47.402Z,936.75
2017-12-14T01:56:10.519Z,936.8
2017-12-14T01:56:38.634Z,936.75
2017-12-14T01:57:06.790Z,936.74
2017-12-14T01:57:34.957Z,936.73
2017-12-14T01:58:02.974Z,936.7
2017-12-14T01:58:31.033Z,936.74
2017-12-14T01:58:59.040Z,936.7
2017-12-14T02:00:22.206Z,936.68
2017-12-14T02:00:50.353Z,936.67
2017-12-14T02:01:18.376Z,936.68
2017-12-14T02:01:46.519Z,936.68
2017-12-14T02:02:14.672Z,936.62
2017-12-14T02:02:42.758Z,936.69
2017-12-14T02:03:10.869Z,936.67
2017-12-14T02:04:34.129Z,936.7
2017-12-14T02:05:02.131Z,936.68
2017-12-14T02:05:30.286Z,936.69
2017-12-14T02:05:58.351Z,936.7
2017-12-14T02:06:26.406Z,936.63
2017-12-14T02:06:54.598Z,936.64
2017-12-14T02:07:22.766Z,936.68
2017-12-14T02:08:46.246Z,936.63
2017-12-14T02:09:14.411Z,936.68
2017-12-14T02:09:42.480Z,936.63
2017-12-14T02:10:10.510Z,936.67
2017-12-14T02:10:38.723Z,936.62
2017-12-14T02:11:06.695Z,936.58
2017-12-14T02:11:34.795Z,936.59
2017-12-14T02:12:57.874Z,936.59
2017-12-14T02:13:26.083Z,936.59
2017-12-14T02:13:54.480Z,936.62
2017-12-14T02:14:22.528Z,936.6
2017-12-14T02:14:50.735Z,936.54
2017-12-14T02:15:18.921Z,936.52
2017-12-14T02:15:47.058Z,936.58
2017-12-14T02:17:10.305Z,936.54
2017-12-14T02:17:38.413Z,936.54
2017-12-14T02:18:06.601Z,936.54
2017-12-14T02:18:34.645Z,936.53
2017-12-14T02:19:02.995Z,936.53
2017-12-14T02:19:31.140Z,936.57
2017-12-14T02:19:59.204Z,936.58
2017-12-14T02:21:22.577Z,936.52
2017-12-14T02:21:50.772Z,936.56
2017-12-14T02:22:18.889Z,936.52
2017-12-14T02:22:47.029Z,936.52
2017-12-14T02:23:15.178Z,936.53
2017-12-14T02:23:43.374Z,936.5
2017-12-14T02:24:11.453Z,936.54
2017-12-14T02:25:34.654Z,936.5
2017-12-14T02:26:02.834Z,936.51
2017-12-14T02:26:31.033Z,936.51
2017-12-14T02:26:59.189Z,936.54
2017-12-14T02:27:27.236Z,936.53
2017-12-14T02:27:55.448Z,936.55
2017-12-14T02:28:23.525Z,936.52
2017-12-14T02:29:46.906Z,936.54
2017-12-14T02:30:15.081Z,936.54
2017-12-14T02:30:43.090Z,936.53
2017-12-14T02:31:11.245Z,936.53
2017-12-14T02:31:39.366Z,936.51
2017-12-14T02:32:07.482Z,936.52
2017-12-14T02:32:35.565Z,936.51
2017-12-14T02:33:58.990Z,936.53
2017-12-14T02:34:27.072Z,936.5
2017-12-14T02:34:55.167Z,936.51
2017-12-14T02:35:23.347Z,936.5
2017-12-14T02:35:51.407Z,936.54
2017-12-14T02:36:19.500Z,936.47
2017-12-14T02:36:47.509Z,936.5
2017-12-14T02:38:10.777Z,936.46
2017-12-14T02:38:38.960Z,936.49
2017-12-14T02:39:07.034Z,936.45
2017-12-14T02:39:35.257Z,936.45
2017-12-14T02:40:03.303Z,936.46
2017-12-14T02:40:31.342Z,936.43
2017-12-14T02:40:59.412Z,936.42
2017-12-14T02:42:22.652Z,936.37
2017-12-14T02:42:50.834Z,936.33
2017-12-14T02:43:19.040Z,936.34
2017-12-14T02:43:47.214Z,936.34
2017-12-14T02:44:15.388Z,936.32
2017-12-14T02:44:43.519Z,936.32
2017-12-14T02:45:11.615Z,936.34
2017-12-14T02:46:34.890Z,936.27
2017-12-14T02:47:02.980Z,936.25
2017-12-14T02:47:31.125Z,936.26
2017-12-14T02:47:59.059Z,936.25
2017-12-14T02:48:27.092Z,936.26
2017-12-14T02:48:55.413Z,936.23
2017-12-14T02:49:23.376Z,936.25
2017-12-14T02:50:46.608Z,936.19
2017-12-14T02:51:14.726Z,936.21
2017-12-14T02:51:42.889Z,936.15
2017-12-14T02:52:10.883Z,936.18
2017-12-14T02:52:39.032Z,936.15
2017-12-14T02:53:07.195Z,936.16
2017-12-14T02:53:35.381Z,936.13
2017-12-14T02:54:58.781Z,936.13
2017-12-14T02:55:26.962Z,936.13
2017-12-14T02:55:55.086Z,936.09
2017-12-14T02:56:23.279Z,936.07
2017-12-14T02:56:51.446Z,936.06
2017-12-14T02:57:19.540Z,936.06
2017-12-14T02:57:47.664Z,936.08
2017-12-14T02:59:10.786Z,936.02
2017-12-14T02:59:38.858Z,936.01
2017-12-14T03:00:06.938Z,936
2017-12-14T03:00:35.056Z,935.98
2017-12-14T03:01:03.047Z,935.99
2017-12-14T03:01:31.237Z,935.96
2017-12-14T03:01:59.382Z,935.92
2017-12-14T03:03:22.669Z,935.95
2017-12-14T03:03:50.836Z,935.99
2017-12-14T03:04:19.321Z,935.94
2017-12-14T03:04:47.484Z,935.94
2017-12-14T03:05:15.643Z,935.93
2017-12-14T03:05:43.660Z,935.98
2017-12-14T03:06:11.599Z,935.94
2017-12-14T03:07:35.023Z,935.94
2017-12-14T03:08:03.191Z,935.94
2017-12-14T03:08:31.248Z,935.92
2017-12-14T03:08:59.386Z,935.91
2017-12-14T03:09:27.517Z,935.93
2017-12-14T03:09:55.572Z,935.91
2017-12-14T03:10:23.760Z,935.93
2017-12-14T03:11:46.954Z,935.93
2017-12-14T03:12:15.101Z,935.92
2017-12-14T03:12:43.265Z,935.94
2017-12-14T03:13:11.405Z,935.96
2017-12-14T03:13:39.495Z,935.92
2017-12-14T03:14:07.932Z,936.01
2017-12-14T03:14:35.934Z,935.96
2017-12-14T03:15:59.288Z,935.96
2017-12-14T03:16:27.419Z,936
2017-12-14T03:16:55.509Z,935.98
2017-12-14T03:17:23.328Z,935.95
2017-12-14T03:17:51.505Z,935.99
2017-12-14T03:18:19.683Z,935.96
2017-12-14T03:18:47.862Z,935.95
2017-12-14T03:20:11.428Z,935.94
2017-12-14T03:20:39.555Z,935.92
2017-12-14T03:21:07.607Z,935.94
2017-12-14T03:21:35.764Z,935.94
2017-12-14T03:22:03.862Z,935.94
2017-12-14T03:22:31.892Z,935.91
2017-12-14T03:22:59.831Z,935.9
2017-12-14T03:24:23.080Z,935.91
2017-12-14T03:24:51.210Z,935.9
2017-12-14T03:25:19.392Z,935.85
2017-12-14T03:25:47.551Z,935.89
2017-12-14T03:26:15.705Z,935.92
2017-12-14T03:26:43.781Z,935.87
2017-12-14T03:27:11.936Z,935.85
2017-12-14T03:28:35.329Z,935.89
2017-12-14T03:29:03.422Z,935.84
2017-12-14T03:29:31.573Z,935.85
2017-12-14T03:29:59.665Z,935.89
2017-12-14T03:30:27.850Z,935.88
2017-12-14T03:30:56.011Z,935.91
2017-12-14T03:31:24.182Z,935.88
2017-12-14T03:32:47.501Z,935.84
2017-12-14T03:33:15.554Z,935.83
2017-12-14T03:33:43.635Z,935.81
2017-12-14T03:34:11.830Z,935.82
2017-12-14T03:34:40.134Z,935.85
2017-12-14T03:35:08.300Z,935.79
2017-12-14T03:35:36.456Z,935.81
2017-12-14T03:36:59.468Z,935.82
2017-12-14T03:37:27.665Z,935.81
2017-12-14T03:37:55.664Z,935.81
2017-12-14T03:38:23.743Z,935.81
2017-12-14T03:38:51.900Z,935.78
2017-12-14T03:39:20.042Z,935.81
2017-12-14T03:39:48.135Z,935.83
2017-12-14T03:41:11.498Z,935.8
2017-12-14T03:41:39.550Z,935.78
2017-12-14T03:42:07.705Z,935.8
2017-12-14T03:42:35.888Z,935.77
2017-12-14T03:43:03.929Z,935.79
2017-12-14T03:43:32.071Z,935.81
2017-12-14T03:44:00.028Z,935.82
2017-12-14T03:45:23.424Z,935.78
2017-12-14T03:45:51.528Z,935.77
2017-12-14T03:46:19.479Z,935.81
2017-12-14T03:46:47.657Z,935.78
2017-12-14T03:47:15.767Z,935.77
2017-12-14T03:47:43.843Z,935.78
2017-12-14T03:48:11.975Z,935.78
2017-12-14T03:49:35.614Z,935.76
2017-12-14T03:50:03.691Z,935.78
2017-12-14T03:50:31.767Z,935.76
2017-12-14T03:50:59.941Z,935.79
2017-12-14T03:51:27.967Z,935.74
2017-12-14T03:51:56.102Z,935.77
2017-12-14T03:52:24.266Z,935.76
2017-12-14T03:53:47.610Z,935.73
2017-12-14T03:54:15.675Z,935.67
2017-12-14T03:54:43.372Z,935.71
2017-12-14T03:55:11.539Z,935.69
2017-12-14T03:55:39.723Z,935.7
2017-12-14T03:56:07.939Z,935.67
2017-12-14T03:56:35.886Z,935.72
2017-12-14T03:57:59.430Z,935.67
2017-12-14T03:58:27.588Z,935.66
2017-12-14T03:58:55.759Z,935.65
2017-12-14T03:59:23.914Z,935.65
2017-12-14T03:59:52.055Z,935.65
2017-12-14T04:00:19.978Z,935.65
2017-12-14T04:00:48.149Z,935.69
2017-12-14T04:02:11.483Z,935.65
2017-12-14T04:02:39.496Z,935.66
2017-12-14T04:03:07.653Z,935.63
2017-12-14T04:03:35.810Z,935.63
2017-12-14T04:04:03.995Z,935.63
2017-12-14T04:04:32.187Z,935.62
2017-12-14T04:05:00.345Z,935.6
2017-12-14T04:06:23.654Z,935.59
2017-12-14T04:06:51.738Z,935.55
2017-12-14T04:07:19.764Z,935.53
2017-12-14T04:07:47.911Z,935.52
2017-12-14T04:08:15.970Z,935.52
2017-12-14T04:08:44.092Z,935.54
2017-12-14T04:09:12.195Z,935.52
2017-12-14T04:10:35.538Z,935.49
2017-12-14T04:11:03.553Z,935.49
2017-12-14T04:11:31.708Z,935.52
2017-12-14T04:11:59.873Z,935.52
2017-12-14T04:12:27.922Z,935.53
2017-12-14T04:12:55.992Z,935.51
2017-12-14T04:13:24.225Z,935.5
2017-12-14T04:14:47.611Z,935.46
2017-12-14T04:15:15.660Z,935.48
2017-12-14T04:15:43.692Z,935.49
2017-12-14T04:16:11.719Z,935.52
2017-12-14T04:16:39.883Z,935.53
2017-12-14T04:17:07.984Z,935.5
2017-12-14T04:17:36.116Z,935.5
2017-12-14T04:18:59.529Z,935.46
2017-12-14T04:19:27.618Z,935.45
2017-12-14T04:19:56.040Z,935.41
2017-12-14T04:20:24.070Z,935.46
2017-12-14T04:20:52.157Z,935.41
2017-12-14T04:21:20.187Z,935.43
2017-12-14T04:21:48.388Z,935.42
2017-12-14T04:23:11.719Z,935.36
2017-12-14T04:23:39.801Z,935.39
2017-12-14T04:24:07.836Z,935.38
2017-12-14T04:24:35.992Z,935.4
2017-12-14T04:25:04.138Z,935.36
2017-12-14T04:25:32.278Z,935.35
2017-12-14T04:26:00.398Z,935.35
2017-12-14T04:27:23.671Z,935.34
2017-12-14T04:27:51.711Z,935.33
2017-12-14T04:28:19.891Z,935.32
2017-12-14T04:28:48.058Z,935.34
2017-12-14T04:29:16.216Z,935.33
2017-12-14T04:29:44.287Z,935.38
2017-12-14T04:30:12.456Z,935.34
2017-12-14T04:31:35.836Z,935.31
2017-12-14T04:32:03.965Z,935.3
2017-12-14T04:32:32.114Z,935.26
2017-12-14T04:33:00.253Z,935.26
2017-12-14T04:33:28.408Z,935.27
2017-12-14T04:33:56.490Z,935.28
2017-12-14T04:34:24.662Z,935.24
2017-12-14T04:35:48.319Z,935.23
2017-12-14T04:36:16.449Z,935.21
2017-12-14T04:36:44.603Z,935.19
2017-12-14T04:37:12.515Z,935.23
2017-12-14T04:37:40.529Z,935.22
2017-12-14T04:38:08.597Z,935.22
2017-12-14T04:38:36.781Z,935.2
2017-12-14T04:40:00.013Z,935.21
2017-12-14T04:40:28.136Z,935.2
2017-12-14T04:40:56.285Z,935.21
2017-12-14T04:41:24.364Z,935.2
2017-12-14T04:41:52.424Z,935.21
2017-12-14T04:42:20.475Z,935.23
2017-12-14T04:42:48.504Z,935.21
2017-12-14T04:44:11.810Z,935.13
2017-12-14T04:44:39.912Z,935.15
2017-12-14T04:45:08.336Z,935.13
2017-12-14T04:45:36.218Z,935.11
2017-12-14T04:46:04.442Z,935.11
2017-12-14T04:46:32.484Z,935.1
2017-12-14T04:47:00.558Z,935.1
2017-12-14T04:48:23.770Z,935.08
2017-12-14T04:48:51.928Z,935.08
2017-12-14T04:49:20.104Z,935.07
2017-12-14T04:49:48.283Z,935.05
2017-12-14T04:50:16.560Z,935
2017-12-14T04:50:44.701Z,935.05
2017-12-14T04:51:12.891Z,935.01
2017-12-14T04:52:36.186Z,935.04
2017-12-14T04:53:04.243Z,935
2017-12-14T04:53:32.384Z,934.98
2017-12-14T04:54:00.543Z,935
2017-12-14T04:54:28.661Z,934.98
2017-12-14T04:54:56.721Z,934.98
2017-12-14T04:55:24.721Z,934.97
2017-12-14T04:56:47.998Z,934.93
2017-12-14T04:57:16.012Z,934.92
2017-12-14T04:57:44.079Z,934.93
2017-12-14T04:58:12.077Z,934.88
2017-12-14T04:58:40.122Z,934.87
2017-12-14T04:59:08.188Z,934.88
2017-12-14T04:59:36.323Z,934.87
2017-12-14T05:00:59.678Z,934.87
2017-12-14T05:01:27.839Z,934.88
2017-12-14T05:01:55.970Z,934.85
2017-12-14T05:02:24.180Z,934.83
2017-12-14T05:02:52.231Z,934.85
2017-12-14T05:03:20.416Z,934.86
2017-12-14T05:03:48.588Z,934.85
2017-12-14T05:05:12.171Z,934.86
2017-12-14T05:05:40.240Z,934.86
2017-12-14T05:06:08.258Z,934.87
2017-12-14T05:06:36.313Z,934.87
2017-12-14T05:07:04.512Z,934.87
2017-12-14T05:07:32.541Z,934.86
2017-12-14T05:08:00.676Z,934.9
2017-12-14T05:09:24.122Z,934.86
2017-12-14T05:09:52.270Z,934.9
2017-12-14T05:10:20.366Z,934.88
2017-12-14T05:10:48.540Z,934.86
2017-12-14T05:11:16.709Z,934.88
2017-12-14T05:11:44.742Z,934.88
2017-12-14T05:12:12.720Z,934.85
2017-12-14T05:13:35.956Z,934.88
2017-12-14T05:14:04.076Z,934.87
2017-12-14T05:14:32.132Z,934.84
2017-12-14T05:15:00.290Z,934.89
2017-12-14T05:15:28.416Z,934.85
2017-12-14T05:15:56.557Z,934.84
2017-12-14T05:16:24.688Z,934.88
2017-12-14T05:17:48.008Z,934.83
2017-12-14T05:18:16.237Z,934.81
2017-12-14T05:18:44.347Z,934.84
2017-12-14T05:19:12.548Z,934.83
2017-12-14T05:19:40.611Z,934.81
2017-12-14T05:20:08.906Z,934.8
2017-12-14T05:20:37.078Z,934.82
2017-12-14T05:22:00.382Z,934.81
2017-12-14T05:22:28.581Z,934.77
2017-12-14T05:22:56.658Z,934.8
2017-12-14T05:23:24.792Z,934.77
2017-12-14T05:23:52.881Z,934.76
2017-12-14T05:24:21.079Z,934.76
2017-12-14T05:24:49.155Z,934.76
2017-12-14T05:26:12.536Z,934.73
2017-12-14T05:26:40.725Z,934.74
2017-12-14T05:27:08.760Z,934.74
2017-12-14T05:27:36.930Z,934.72
2017-12-14T05:28:05.139Z,934.7
2017-12-14T05:28:33.169Z,934.69
2017-12-14T05:29:01.294Z,934.67
2017-12-14T05:30:24.671Z,934.65
2017-12-14T05:30:52.815Z,934.67
2017-12-14T05:31:20.980Z,934.65
2017-12-14T05:31:48.945Z,934.66
2017-12-14T05:32:17.019Z,934.62
2017-12-14T05:32:45.178Z,934.6
2017-12-14T05:33:13.296Z,934.6
2017-12-14T05:34:36.544Z,934.62
2017-12-14T05:35:04.594Z,934.6
2017-12-14T05:35:32.929Z,934.61
2017-12-14T05:36:00.952Z,934.6
2017-12-14T05:36:29.100Z,934.59
2017-12-14T05:36:57.266Z,934.6
2017-12-14T05:37:25.321Z,934.64
2017-12-14T05:38:48.726Z,934.6
2017-12-14T05:39:16.684Z,934.62
2017-12-14T05:39:44.723Z,934.62
2017-12-14T05:40:12.687Z,934.59
2017-12-14T05:40:40.901Z,934.66
2017-12-14T05:41:09.099Z,934.61
2017-12-14T05:41:37.260Z,934.64
2017-12-14T05:43:00.552Z,934.69
2017-12-14T05:43:28.706Z,934.68
2017-12-14T05:43:56.756Z,934.66
2017-12-14T05:44:24.915Z,934.61
2017-12-14T05:44:52.987Z,934.68
2017-12-14T05:45:21.187Z,934.68
2017-12-14T05:45:49.230Z,934.68
2017-12-14T05:47:12.505Z,934.7
2017-12-14T05:47:40.698Z,934.68
2017-12-14T05:48:08.801Z,934.71
2017-12-14T05:48:36.984Z,934.68
2017-12-14T05:49:05.164Z,934.69
2017-12-14T05:49:33.219Z,934.72
2017-12-14T05:50:01.389Z,934.72
2017-12-14T05:51:24.773Z,934.68
2017-12-14T05:51:52.982Z,934.69
2017-12-14T05:52:21.153Z,934.64
2017-12-14T05:52:49.306Z,934.67
2017-12-14T05:53:17.358Z,934.68
2017-12-14T05:53:45.528Z,934.67
2017-12-14T05:54:13.660Z,934.66
2017-12-14T05:55:37.036Z,934.68
2017-12-14T05:56:05.154Z,934.69
2017-12-14T05:56:47.756Z,934.71
2017-12-14T05:57:15.972Z,934.68
2017-12-14T05:57:44.142Z,934.66
2017-12-14T05:58:12.338Z,934.68
2017-12-14T05:58:40.459Z,934.69
2017-12-14T05:59:08.604Z,934.64
2017-12-14T06:00:09.495Z,934.65
2017-12-14T06:00:37.467Z,934.66
2017-12-14T06:01:05.606Z,934.64
2017-12-14T06:01:33.648Z,934.63
2017-12-14T06:02:01.859Z,934.65
2017-12-14T06:02:29.913Z,934.64
2017-12-14T06:02:57.984Z,934.61
2017-12-14T06:04:21.244Z,934.63
2017-12-14T06:04:49.411Z,934.62
2017-12-14T06:05:17.526Z,934.62
2017-12-14T06:05:45.998Z,934.62
2017-12-14T06:06:14.100Z,934.56
2017-12-14T06:06:42.158Z,934.62
2017-12-14T06:07:10.275Z,934.59
2017-12-14T06:08:33.570Z,934.6
2017-12-14T06:09:01.663Z,934.57
2017-12-14T06:09:29.753Z,934.62
2017-12-14T06:09:57.836Z,934.59
2017-12-14T06:10:25.879Z,934.63
2017-12-14T06:10:54.082Z,934.6
2017-12-14T06:11:22.230Z,934.61
2017-12-14T06:12:45.638Z,934.57
2017-12-14T06:13:13.791Z,934.63
2017-12-14T06:13:41.751Z,934.64
2017-12-14T06:14:09.863Z,934.63
2017-12-14T06:14:38.019Z,934.61
2017-12-14T06:15:06.146Z,934.67
2017-12-14T06:15:34.440Z,934.68
2017-12-14T06:16:57.761Z,934.66
2017-12-14T06:17:25.849Z,934.66
2017-12-14T06:17:53.942Z,934.68
2017-12-14T06:18:22.094Z,934.64
2017-12-14T06:18:50.301Z,934.63
2017-12-14T06:19:18.169Z,934.69
2017-12-14T06:19:46.286Z,934.66
2017-12-14T06:21:09.611Z,934.71
2017-12-14T06:21:37.806Z,934.68
2017-12-14T06:22:05.988Z,934.71
2017-12-14T06:22:34.064Z,934.69
2017-12-14T06:23:02.058Z,934.74
2017-12-14T06:23:30.166Z,934.75
2017-12-14T06:23:58.302Z,934.71
2017-12-14T06:25:21.689Z,934.78
2017-12-14T06:25:49.871Z,934.77
2017-12-14T06:26:18.010Z,934.75
2017-12-14T06:26:46.143Z,934.81
2017-12-14T06:27:14.265Z,934.76
2017-12-14T06:27:42.400Z,934.75
2017-12-14T06:28:10.302Z,934.74
2017-12-14T06:29:33.500Z,934.78
2017-12-14T06:30:01.637Z,934.76
2017-12-14T06:30:29.788Z,934.72
2017-12-14T06:30:57.888Z,934.74
2017-12-14T06:31:26.057Z,934.77
2017-12-14T06:31:54.244Z,934.77
2017-12-14T06:32:22.215Z,934.73
2017-12-14T06:33:45.464Z,934.76
2017-12-14T06:34:13.619Z,934.76
2017-12-14T06:34:41.753Z,934.78
2017-12-14T06:35:09.906Z,934.79
2017-12-14T06:35:37.754Z,934.76
2017-12-14T06:36:06.199Z,934.76
2017-12-14T06:36:34.325Z,934.79
2017-12-14T06:37:57.567Z,934.8
2017-12-14T06:38:25.726Z,934.8
2017-12-14T06:38:53.744Z,934.76
2017-12-14T06:39:21.869Z,934.76
2017-12-14T06:39:49.939Z,934.81
2017-12-14T06:40:18.027Z,934.77
2017-12-14T06:40:46.158Z,934.75
2017-12-14T06:42:09.555Z,934.78
2017-12-14T06:42:37.569Z,934.77
2017-12-14T06:43:05.708Z,934.77
2017-12-14T06:43:33.755Z,934.76
2017-12-14T06:44:01.797Z,934.73
2017-12-14T06:44:29.959Z,934.72
2017-12-14T06:44:58.053Z,934.7
2017-12-14T06:46:21.199Z,934.72
2017-12-14T06:46:49.325Z,934.72
2017-12-14T06:47:17.460Z,934.7
2017-12-14T06:47:45.495Z,934.67
2017-12-14T06:48:13.585Z,934.69
2017-12-14T06:48:41.730Z,934.7
2017-12-14T06:49:09.802Z,934.67
2017-12-14T06:50:33.135Z,934.69
2017-12-14T06:51:01.340Z,934.65
2017-12-14T06:51:29.646Z,934.65
2017-12-14T06:51:57.821Z,934.63
2017-12-14T06:52:25.855Z,934.67
2017-12-14T06:52:54.082Z,934.65
2017-12-14T06:53:22.184Z,934.62
2017-12-14T06:54:45.563Z,934.61
2017-12-14T06:55:13.716Z,934.63
2017-12-14T06:55:41.684Z,934.6
2017-12-14T06:56:09.797Z,934.66
2017-12-14T06:56:37.806Z,934.64
2017-12-14T06:57:05.988Z,934.68
2017-12-14T06:57:34.018Z,934.64
2017-12-14T06:58:57.441Z,934.67
2017-12-14T06:59:25.486Z,934.68
2017-12-14T06:59:53.536Z,934.66
2017-12-14T07:00:21.639Z,934.69
2017-12-14T07:00:49.706Z,934.72
2017-12-14T07:01:17.806Z,934.7
2017-12-14T07:01:45.870Z,934.7
2017-12-14T07:03:09.070Z,934.67
2017-12-14T07:03:37.225Z,934.72
2017-12-14T07:04:05.392Z,934.68
2017-12-14T07:04:33.418Z,934.71
2017-12-14T07:05:01.644Z,934.72
2017-12-14T07:05:29.864Z,934.67
2017-12-14T07:05:58.006Z,934.7
2017-12-14T07:07:21.335Z,934.7
2017-12-14T07:07:49.244Z,934.66
2017-12-14T07:08:17.204Z,934.7
2017-12-14T07:08:45.367Z,934.71
2017-12-14T07:09:13.446Z,934.69
2017-12-14T07:09:41.840Z,934.69
2017-12-14T07:10:09.999Z,934.68
2017-12-14T07:11:33.398Z,934.69
2017-12-14T07:12:01.580Z,934.68
2017-12-14T07:12:29.583Z,934.66
2017-12-14T07:12:57.723Z,934.67
2017-12-14T07:13:25.861Z,934.69
2017-12-14T07:13:53.904Z,934.67
2017-12-14T07:14:21.959Z,934.67
2017-12-14T07:15:45.318Z,934.65
2017-12-14T07:16:13.497Z,934.7
2017-12-14T07:16:41.765Z,934.69
2017-12-14T07:17:09.513Z,934.65
2017-12-14T07:17:37.483Z,934.64
2017-12-14T07:18:05.431Z,934.66
2017-12-14T07:18:33.604Z,934.68
2017-12-14T07:19:57.006Z,934.68
2017-12-14T07:20:25.073Z,934.66
2017-12-14T07:20:53.147Z,934.66
2017-12-14T07:21:21.313Z,934.69
2017-12-14T07:21:49.490Z,934.71
2017-12-14T07:22:17.689Z,934.71
2017-12-14T07:22:45.735Z,934.67
2017-12-14T07:24:09.104Z,934.67
2017-12-14T07:24:37.176Z,934.69
2017-12-14T07:25:05.341Z,934.67
2017-12-14T07:25:33.270Z,934.67
2017-12-14T07:26:01.332Z,934.72
2017-12-14T07:26:29.523Z,934.68
2017-12-14T07:26:57.614Z,934.67
2017-12-14T07:28:20.924Z,934.67
2017-12-14T07:28:48.947Z,934.68
2017-12-14T07:29:17.016Z,934.66
2017-12-14T07:29:45.140Z,934.67
2017-12-14T07:30:13.161Z,934.62
2017-12-14T07:30:41.255Z,934.65